sensor_id;sensor_type;location;lat;lon;timestamp;P1;durP1;ratioP1;P2;durP2;ratioP2
422;SDS011;198;48.752;9.180;2023-08-06T00:01:49;3.90;;;2.83;;
422;SDS011;198;48.752;9.180;2023-08-06T00:04:14;13.13;;;4.63;;
422;SDS011;198;48.752;9.180;2023-08-06T00:06:40;9.47;;;4.70;;
422;SDS011;198;48.752;9.180;2023-08-06T00:09:05;8.43;;;4.67;;
422;SDS011;198;48.752;9.180;2023-08-06T00:11:31;7.90;;;4.00;;
422;SDS011;198;48.752;9.180;2023-08-06T00:13:57;9.10;;;4.57;;
422;SDS011;198;48.752;9.180;2023-08-06T00:16:22;6.73;;;4.73;;
422;SDS011;198;48.752;9.180;2023-08-06T00:18:48;4.57;;;3.60;;
422;SDS011;198;48.752;9.180;2023-08-06T00:21:13;7.03;;;3.87;;
422;SDS011;198;48.752;9.180;2023-08-06T00:23:39;5.53;;;3.50;;
422;SDS011;198;48.752;9.180;2023-08-06T00:26:05;7.70;;;3.70;;
422;SDS011;198;48.752;9.180;2023-08-06T00:28:31;6.57;;;3.90;;
422;SDS011;198;48.752;9.180;2023-08-06T00:30:56;6.70;;;3.27;;
422;SDS011;198;48.752;9.180;2023-08-06T00:33:22;5.00;;;3.80;;
422;SDS011;198;48.752;9.180;2023-08-06T00:35:48;4.23;;;3.40;;
422;SDS011;198;48.752;9.180;2023-08-06T00:38:14;7.30;;;3.57;;
422;SDS011;198;48.752;9.180;2023-08-06T00:40:40;10.07;;;3.47;;
422;SDS011;198;48.752;9.180;2023-08-06T00:43:05;7.30;;;3.03;;
422;SDS011;198;48.752;9.180;2023-08-06T00:45:31;5.03;;;3.57;;
422;SDS011;198;48.752;9.180;2023-08-06T00:48:00;4.73;;;3.37;;
422;SDS011;198;48.752;9.180;2023-08-06T00:50:26;9.40;;;4.07;;
422;SDS011;198;48.752;9.180;2023-08-06T00:52:53;4.77;;;2.80;;
422;SDS011;198;48.752;9.180;2023-08-06T00:55:19;6.37;;;3.27;;
422;SDS011;198;48.752;9.180;2023-08-06T00:57:44;6.40;;;3.70;;
422;SDS011;198;48.752;9.180;2023-08-06T01:00:10;8.03;;;3.10;;
422;SDS011;198;48.752;9.180;2023-08-06T01:02:36;5.90;;;3.20;;
422;SDS011;198;48.752;9.180;2023-08-06T01:05:02;5.60;;;2.93;;
422;SDS011;198;48.752;9.180;2023-08-06T01:07:42;5.17;;;2.60;;
422;SDS011;198;48.752;9.180;2023-08-06T01:10:29;3.07;;;2.30;;
422;SDS011;198;48.752;9.180;2023-08-06T01:13:07;5.30;;;3.00;;
422;SDS011;198;48.752;9.180;2023-08-06T01:15:46;4.10;;;2.00;;
422;SDS011;198;48.752;9.180;2023-08-06T01:18:14;2.80;;;2.30;;
422;SDS011;198;48.752;9.180;2023-08-06T01:20:40;3.20;;;2.57;;
422;SDS011;198;48.752;9.180;2023-08-06T01:23:05;3.33;;;2.03;;
422;SDS011;198;48.752;9.180;2023-08-06T01:25:34;3.00;;;2.30;;
422;SDS011;198;48.752;9.180;2023-08-06T01:28:13;2.23;;;1.83;;
422;SDS011;198;48.752;9.180;2023-08-06T01:30:45;3.60;;;2.57;;
422;SDS011;198;48.752;9.180;2023-08-06T01:33:14;6.70;;;3.07;;
422;SDS011;198;48.752;9.180;2023-08-06T01:35:44;3.73;;;2.17;;
422;SDS011;198;48.752;9.180;2023-08-06T01:38:11;4.40;;;2.20;;
422;SDS011;198;48.752;9.180;2023-08-06T01:40:36;2.10;;;1.93;;
422;SDS011;198;48.752;9.180;2023-08-06T01:43:02;3.80;;;2.30;;
422;SDS011;198;48.752;9.180;2023-08-06T01:45:27;5.47;;;3.20;;
422;SDS011;198;48.752;9.180;2023-08-06T01:47:53;4.60;;;2.80;;
422;SDS011;198;48.752;9.180;2023-08-06T01:50:18;3.07;;;2.40;;
422;SDS011;198;48.752;9.180;2023-08-06T01:52:44;3.43;;;2.50;;
422;SDS011;198;48.752;9.180;2023-08-06T01:55:09;4.47;;;2.90;;
422;SDS011;198;48.752;9.180;2023-08-06T01:57:35;7.03;;;2.10;;
422;SDS011;198;48.752;9.180;2023-08-06T02:00:00;3.17;;;2.50;;
422;SDS011;198;48.752;9.180;2023-08-06T02:02:26;3.63;;;2.57;;
422;SDS011;198;48.752;9.180;2023-08-06T02:04:51;7.73;;;2.13;;
422;SDS011;198;48.752;9.180;2023-08-06T02:07:17;5.87;;;2.97;;
422;SDS011;198;48.752;9.180;2023-08-06T02:09:42;5.40;;;2.73;;
422;SDS011;198;48.752;9.180;2023-08-06T02:12:08;3.43;;;2.50;;
422;SDS011;198;48.752;9.180;2023-08-06T02:14:33;3.50;;;2.63;;
422;SDS011;198;48.752;9.180;2023-08-06T02:16:59;3.30;;;2.37;;
422;SDS011;198;48.752;9.180;2023-08-06T02:19:24;9.40;;;2.80;;
422;SDS011;198;48.752;9.180;2023-08-06T02:21:50;5.73;;;2.40;;
422;SDS011;198;48.752;9.180;2023-08-06T02:24:15;5.63;;;2.90;;
422;SDS011;198;48.752;9.180;2023-08-06T02:26:41;4.10;;;2.70;;
422;SDS011;198;48.752;9.180;2023-08-06T02:29:06;5.90;;;2.47;;
422;SDS011;198;48.752;9.180;2023-08-06T02:31:32;2.63;;;2.17;;
422;SDS011;198;48.752;9.180;2023-08-06T02:33:57;9.33;;;2.40;;
422;SDS011;198;48.752;9.180;2023-08-06T02:36:23;5.83;;;3.07;;
422;SDS011;198;48.752;9.180;2023-08-06T02:38:49;3.37;;;2.33;;
422;SDS011;198;48.752;9.180;2023-08-06T02:41:15;2.80;;;2.00;;
422;SDS011;198;48.752;9.180;2023-08-06T02:43:40;4.97;;;2.27;;
422;SDS011;198;48.752;9.180;2023-08-06T02:46:06;4.07;;;2.43;;
422;SDS011;198;48.752;9.180;2023-08-06T02:48:31;2.77;;;2.03;;
422;SDS011;198;48.752;9.180;2023-08-06T02:50:57;3.57;;;2.33;;
422;SDS011;198;48.752;9.180;2023-08-06T02:53:24;3.77;;;1.93;;
422;SDS011;198;48.752;9.180;2023-08-06T02:55:49;2.80;;;2.00;;
422;SDS011;198;48.752;9.180;2023-08-06T02:58:15;2.63;;;2.20;;
422;SDS011;198;48.752;9.180;2023-08-06T03:00:42;4.00;;;2.30;;
422;SDS011;198;48.752;9.180;2023-08-06T03:03:08;3.07;;;2.13;;
422;SDS011;198;48.752;9.180;2023-08-06T03:05:33;5.67;;;2.23;;
422;SDS011;198;48.752;9.180;2023-08-06T03:07:59;7.23;;;2.60;;
422;SDS011;198;48.752;9.180;2023-08-06T03:10:24;4.47;;;2.40;;
422;SDS011;198;48.752;9.180;2023-08-06T03:12:50;2.30;;;1.70;;
422;SDS011;198;48.752;9.180;2023-08-06T03:15:15;6.03;;;2.30;;
422;SDS011;198;48.752;9.180;2023-08-06T03:17:41;4.10;;;2.23;;
422;SDS011;198;48.752;9.180;2023-08-06T03:20:06;3.70;;;2.40;;
422;SDS011;198;48.752;9.180;2023-08-06T03:22:32;9.20;;;2.03;;
422;SDS011;198;48.752;9.180;2023-08-06T03:24:58;11.53;;;4.30;;
422;SDS011;198;48.752;9.180;2023-08-06T03:27:23;2.70;;;1.80;;
422;SDS011;198;48.752;9.180;2023-08-06T03:29:49;7.00;;;1.87;;
422;SDS011;198;48.752;9.180;2023-08-06T03:32:17;4.10;;;2.17;;
422;SDS011;198;48.752;9.180;2023-08-06T03:34:43;4.93;;;2.13;;
422;SDS011;198;48.752;9.180;2023-08-06T03:37:09;3.27;;;2.30;;
422;SDS011;198;48.752;9.180;2023-08-06T03:39:34;5.60;;;2.37;;
422;SDS011;198;48.752;9.180;2023-08-06T03:42:00;10.93;;;1.97;;
422;SDS011;198;48.752;9.180;2023-08-06T03:44:25;2.93;;;1.90;;
422;SDS011;198;48.752;9.180;2023-08-06T03:46:52;5.03;;;2.30;;
422;SDS011;198;48.752;9.180;2023-08-06T03:49:17;7.13;;;2.50;;
422;SDS011;198;48.752;9.180;2023-08-06T03:51:43;3.93;;;2.27;;
422;SDS011;198;48.752;9.180;2023-08-06T03:54:08;4.37;;;2.23;;
422;SDS011;198;48.752;9.180;2023-08-06T03:56:34;7.80;;;2.60;;
422;SDS011;198;48.752;9.180;2023-08-06T03:58:59;7.23;;;2.43;;
422;SDS011;198;48.752;9.180;2023-08-06T04:01:25;5.20;;;2.00;;
422;SDS011;198;48.752;9.180;2023-08-06T04:03:50;4.23;;;2.17;;
422;SDS011;198;48.752;9.180;2023-08-06T04:06:16;3.53;;;1.83;;
422;SDS011;198;48.752;9.180;2023-08-06T04:08:41;2.60;;;1.80;;
422;SDS011;198;48.752;9.180;2023-08-06T04:11:07;4.90;;;1.77;;
422;SDS011;198;48.752;9.180;2023-08-06T04:13:33;6.80;;;2.13;;
422;SDS011;198;48.752;9.180;2023-08-06T04:16:02;5.47;;;2.13;;
422;SDS011;198;48.752;9.180;2023-08-06T04:18:27;3.83;;;1.83;;
422;SDS011;198;48.752;9.180;2023-08-06T04:20:53;2.27;;;1.63;;
422;SDS011;198;48.752;9.180;2023-08-06T04:23:20;3.63;;;2.57;;
422;SDS011;198;48.752;9.180;2023-08-06T04:25:45;3.43;;;1.73;;
422;SDS011;198;48.752;9.180;2023-08-06T04:28:11;6.87;;;3.13;;
422;SDS011;198;48.752;9.180;2023-08-06T04:30:37;2.63;;;1.83;;
422;SDS011;198;48.752;9.180;2023-08-06T04:33:03;6.20;;;1.87;;
422;SDS011;198;48.752;9.180;2023-08-06T04:35:28;5.37;;;1.90;;
422;SDS011;198;48.752;9.180;2023-08-06T04:37:54;3.33;;;1.87;;
422;SDS011;198;48.752;9.180;2023-08-06T04:40:19;3.40;;;1.63;;
422;SDS011;198;48.752;9.180;2023-08-06T04:42:45;5.80;;;1.90;;
422;SDS011;198;48.752;9.180;2023-08-06T04:45:10;1.83;;;1.60;;
422;SDS011;198;48.752;9.180;2023-08-06T04:47:36;3.30;;;1.70;;
422;SDS011;198;48.752;9.180;2023-08-06T04:50:01;3.43;;;1.73;;
422;SDS011;198;48.752;9.180;2023-08-06T04:52:27;1.90;;;1.53;;
422;SDS011;198;48.752;9.180;2023-08-06T04:54:53;4.40;;;1.40;;
422;SDS011;198;48.752;9.180;2023-08-06T04:57:19;2.60;;;1.70;;
422;SDS011;198;48.752;9.180;2023-08-06T04:59:45;3.60;;;1.50;;
422;SDS011;198;48.752;9.180;2023-08-06T05:02:10;3.30;;;1.70;;
422;SDS011;198;48.752;9.180;2023-08-06T05:04:36;2.90;;;1.50;;
422;SDS011;198;48.752;9.180;2023-08-06T05:07:01;4.60;;;1.20;;
422;SDS011;198;48.752;9.180;2023-08-06T05:09:27;2.10;;;1.50;;
422;SDS011;198;48.752;9.180;2023-08-06T05:11:52;1.90;;;1.20;;
422;SDS011;198;48.752;9.180;2023-08-06T05:14:18;1.97;;;1.70;;
422;SDS011;198;48.752;9.180;2023-08-06T05:16:43;3.70;;;1.77;;
422;SDS011;198;48.752;9.180;2023-08-06T05:19:09;4.30;;;1.60;;
422;SDS011;198;48.752;9.180;2023-08-06T05:21:34;2.50;;;1.70;;
422;SDS011;198;48.752;9.180;2023-08-06T05:24:00;2.43;;;1.10;;
422;SDS011;198;48.752;9.180;2023-08-06T05:26:25;1.97;;;1.20;;
422;SDS011;198;48.752;9.180;2023-08-06T05:28:51;3.20;;;1.17;;
422;SDS011;198;48.752;9.180;2023-08-06T05:31:16;3.30;;;1.30;;
422;SDS011;198;48.752;9.180;2023-08-06T05:33:42;4.00;;;1.77;;
422;SDS011;198;48.752;9.180;2023-08-06T05:36:07;3.07;;;1.20;;
422;SDS011;198;48.752;9.180;2023-08-06T05:38:32;1.80;;;0.97;;
422;SDS011;198;48.752;9.180;2023-08-06T05:40:58;4.73;;;1.00;;
422;SDS011;198;48.752;9.180;2023-08-06T05:43:23;1.60;;;1.10;;
422;SDS011;198;48.752;9.180;2023-08-06T05:45:49;3.70;;;1.10;;
422;SDS011;198;48.752;9.180;2023-08-06T05:48:15;0.90;;;0.90;;
422;SDS011;198;48.752;9.180;2023-08-06T05:50:41;1.43;;;0.87;;
422;SDS011;198;48.752;9.180;2023-08-06T05:53:07;7.70;;;1.00;;
422;SDS011;198;48.752;9.180;2023-08-06T05:55:32;4.20;;;0.93;;
422;SDS011;198;48.752;9.180;2023-08-06T05:57:58;5.10;;;1.30;;
422;SDS011;198;48.752;9.180;2023-08-06T06:00:24;1.63;;;1.00;;
422;SDS011;198;48.752;9.180;2023-08-06T06:02:49;1.33;;;0.70;;
422;SDS011;198;48.752;9.180;2023-08-06T06:05:15;1.90;;;0.73;;
422;SDS011;198;48.752;9.180;2023-08-06T06:07:40;2.10;;;0.70;;
422;SDS011;198;48.752;9.180;2023-08-06T06:10:06;1.40;;;1.00;;
422;SDS011;198;48.752;9.180;2023-08-06T06:12:32;5.40;;;1.00;;
422;SDS011;198;48.752;9.180;2023-08-06T06:14:58;3.63;;;1.10;;
422;SDS011;198;48.752;9.180;2023-08-06T06:17:25;1.00;;;0.80;;
422;SDS011;198;48.752;9.180;2023-08-06T06:19:51;0.93;;;0.70;;
422;SDS011;198;48.752;9.180;2023-08-06T06:22:17;1.47;;;0.80;;
422;SDS011;198;48.752;9.180;2023-08-06T06:24:42;1.40;;;0.70;;
422;SDS011;198;48.752;9.180;2023-08-06T06:27:08;0.83;;;0.70;;
422;SDS011;198;48.752;9.180;2023-08-06T06:29:34;5.93;;;1.10;;
422;SDS011;198;48.752;9.180;2023-08-06T06:31:59;2.10;;;0.80;;
422;SDS011;198;48.752;9.180;2023-08-06T06:34:24;2.60;;;1.00;;
422;SDS011;198;48.752;9.180;2023-08-06T06:36:50;1.47;;;1.10;;
422;SDS011;198;48.752;9.180;2023-08-06T06:39:15;2.40;;;1.73;;
422;SDS011;198;48.752;9.180;2023-08-06T06:41:42;0.97;;;0.97;;
422;SDS011;198;48.752;9.180;2023-08-06T06:44:09;2.20;;;1.00;;
422;SDS011;198;48.752;9.180;2023-08-06T06:46:34;2.73;;;0.60;;
422;SDS011;198;48.752;9.180;2023-08-06T06:49:00;0.80;;;0.70;;
422;SDS011;198;48.752;9.180;2023-08-06T06:51:25;2.30;;;1.17;;
422;SDS011;198;48.752;9.180;2023-08-06T06:53:51;1.67;;;0.80;;
422;SDS011;198;48.752;9.180;2023-08-06T06:56:16;0.70;;;0.60;;
422;SDS011;198;48.752;9.180;2023-08-06T06:58:42;1.70;;;0.93;;
422;SDS011;198;48.752;9.180;2023-08-06T07:01:08;0.83;;;0.63;;
422;SDS011;198;48.752;9.180;2023-08-06T07:03:35;1.07;;;0.70;;
422;SDS011;198;48.752;9.180;2023-08-06T07:06:01;0.80;;;0.70;;
422;SDS011;198;48.752;9.180;2023-08-06T07:08:26;9.93;;;1.20;;
422;SDS011;198;48.752;9.180;2023-08-06T07:11:13;1.37;;;1.10;;
422;SDS011;198;48.752;9.180;2023-08-06T07:13:38;2.40;;;0.70;;
422;SDS011;198;48.752;9.180;2023-08-06T07:16:03;3.53;;;1.00;;
422;SDS011;198;48.752;9.180;2023-08-06T07:18:29;2.07;;;1.00;;
422;SDS011;198;48.752;9.180;2023-08-06T07:20:54;1.23;;;0.73;;
422;SDS011;198;48.752;9.180;2023-08-06T07:23:21;6.03;;;0.83;;
422;SDS011;198;48.752;9.180;2023-08-06T07:25:48;2.30;;;0.70;;
422;SDS011;198;48.752;9.180;2023-08-06T07:28:14;1.63;;;1.53;;
422;SDS011;198;48.752;9.180;2023-08-06T07:30:41;0.83;;;0.67;;
422;SDS011;198;48.752;9.180;2023-08-06T07:33:07;5.53;;;1.10;;
422;SDS011;198;48.752;9.180;2023-08-06T07:35:33;1.73;;;1.20;;
422;SDS011;198;48.752;9.180;2023-08-06T07:37:59;2.77;;;0.60;;
422;SDS011;198;48.752;9.180;2023-08-06T07:40:24;0.60;;;0.53;;
422;SDS011;198;48.752;9.180;2023-08-06T07:42:50;0.87;;;0.80;;
422;SDS011;198;48.752;9.180;2023-08-06T07:45:15;0.80;;;0.80;;
422;SDS011;198;48.752;9.180;2023-08-06T07:47:41;0.73;;;0.60;;
422;SDS011;198;48.752;9.180;2023-08-06T07:50:08;0.70;;;0.60;;
422;SDS011;198;48.752;9.180;2023-08-06T07:52:33;1.43;;;0.80;;
422;SDS011;198;48.752;9.180;2023-08-06T07:54:59;1.27;;;0.60;;
422;SDS011;198;48.752;9.180;2023-08-06T07:57:26;0.60;;;0.50;;
422;SDS011;198;48.752;9.180;2023-08-06T07:59:52;0.50;;;0.40;;
422;SDS011;198;48.752;9.180;2023-08-06T08:02:18;5.83;;;0.50;;
422;SDS011;198;48.752;9.180;2023-08-06T08:04:44;0.73;;;0.50;;
422;SDS011;198;48.752;9.180;2023-08-06T08:07:12;0.70;;;0.60;;
422;SDS011;198;48.752;9.180;2023-08-06T08:09:37;1.10;;;0.60;;
422;SDS011;198;48.752;9.180;2023-08-06T08:12:03;0.63;;;0.57;;
422;SDS011;198;48.752;9.180;2023-08-06T08:14:29;0.40;;;0.40;;
422;SDS011;198;48.752;9.180;2023-08-06T08:17:00;0.53;;;0.43;;
422;SDS011;198;48.752;9.180;2023-08-06T08:19:25;0.40;;;0.40;;
422;SDS011;198;48.752;9.180;2023-08-06T08:21:51;0.40;;;0.40;;
422;SDS011;198;48.752;9.180;2023-08-06T08:24:16;2.20;;;0.50;;
422;SDS011;198;48.752;9.180;2023-08-06T08:26:44;0.40;;;0.40;;
422;SDS011;198;48.752;9.180;2023-08-06T08:29:10;2.00;;;0.50;;
422;SDS011;198;48.752;9.180;2023-08-06T08:31:35;0.40;;;0.40;;
422;SDS011;198;48.752;9.180;2023-08-06T08:34:04;0.50;;;0.40;;
422;SDS011;198;48.752;9.180;2023-08-06T08:36:30;0.50;;;0.40;;
422;SDS011;198;48.752;9.180;2023-08-06T08:38:56;0.50;;;0.40;;
422;SDS011;198;48.752;9.180;2023-08-06T08:41:22;0.50;;;0.50;;
422;SDS011;198;48.752;9.180;2023-08-06T08:43:48;0.60;;;0.50;;
422;SDS011;198;48.752;9.180;2023-08-06T08:46:17;0.50;;;0.40;;
422;SDS011;198;48.752;9.180;2023-08-06T08:48:45;0.60;;;0.50;;
422;SDS011;198;48.752;9.180;2023-08-06T08:51:11;0.80;;;0.50;;
422;SDS011;198;48.752;9.180;2023-08-06T08:53:38;0.73;;;0.50;;
422;SDS011;198;48.752;9.180;2023-08-06T08:56:04;0.90;;;0.50;;
422;SDS011;198;48.752;9.180;2023-08-06T08:58:30;1.23;;;0.50;;
422;SDS011;198;48.752;9.180;2023-08-06T09:00:57;0.50;;;0.40;;
422;SDS011;198;48.752;9.180;2023-08-06T09:03:23;0.40;;;0.40;;
422;SDS011;198;48.752;9.180;2023-08-06T09:05:50;2.63;;;0.60;;
422;SDS011;198;48.752;9.180;2023-08-06T09:08:18;0.97;;;0.40;;
422;SDS011;198;48.752;9.180;2023-08-06T09:10:49;0.57;;;0.47;;
422;SDS011;198;48.752;9.180;2023-08-06T09:13:15;0.40;;;0.40;;
422;SDS011;198;48.752;9.180;2023-08-06T09:15:41;0.80;;;0.60;;
422;SDS011;198;48.752;9.180;2023-08-06T09:18:09;0.40;;;0.40;;
422;SDS011;198;48.752;9.180;2023-08-06T09:20:36;0.50;;;0.43;;
422;SDS011;198;48.752;9.180;2023-08-06T09:23:09;0.40;;;0.40;;
422;SDS011;198;48.752;9.180;2023-08-06T09:25:36;1.13;;;0.50;;
422;SDS011;198;48.752;9.180;2023-08-06T09:28:03;0.47;;;0.40;;
422;SDS011;198;48.752;9.180;2023-08-06T09:30:30;0.93;;;0.40;;
422;SDS011;198;48.752;9.180;2023-08-06T09:32:56;0.40;;;0.40;;
422;SDS011;198;48.752;9.180;2023-08-06T09:35:22;0.40;;;0.40;;
422;SDS011;198;48.752;9.180;2023-08-06T09:37:48;0.70;;;0.60;;
422;SDS011;198;48.752;9.180;2023-08-06T09:40:31;0.40;;;0.40;;
422;SDS011;198;48.752;9.180;2023-08-06T09:42:58;0.50;;;0.40;;
422;SDS011;198;48.752;9.180;2023-08-06T09:45:28;0.40;;;0.40;;
422;SDS011;198;48.752;9.180;2023-08-06T09:47:58;0.50;;;0.40;;
422;SDS011;198;48.752;9.180;2023-08-06T09:50:27;0.40;;;0.40;;
422;SDS011;198;48.752;9.180;2023-08-06T09:52:59;5.70;;;0.60;;
422;SDS011;198;48.752;9.180;2023-08-06T09:55:25;0.40;;;0.40;;
422;SDS011;198;48.752;9.180;2023-08-06T09:57:51;0.60;;;0.40;;
422;SDS011;198;48.752;9.180;2023-08-06T10:00:17;0.50;;;0.40;;
422;SDS011;198;48.752;9.180;2023-08-06T10:02:43;1.73;;;0.60;;
422;SDS011;198;48.752;9.180;2023-08-06T10:05:10;0.43;;;0.40;;
422;SDS011;198;48.752;9.180;2023-08-06T10:07:35;0.87;;;0.50;;
422;SDS011;198;48.752;9.180;2023-08-06T10:10:01;0.40;;;0.40;;
422;SDS011;198;48.752;9.180;2023-08-06T10:12:28;0.80;;;0.60;;
422;SDS011;198;48.752;9.180;2023-08-06T10:14:58;0.70;;;0.60;;
422;SDS011;198;48.752;9.180;2023-08-06T10:17:26;0.50;;;0.50;;
422;SDS011;198;48.752;9.180;2023-08-06T10:19:52;0.40;;;0.40;;
422;SDS011;198;48.752;9.180;2023-08-06T10:22:21;0.40;;;0.40;;
422;SDS011;198;48.752;9.180;2023-08-06T10:27:13;0.40;;;0.40;;
422;SDS011;198;48.752;9.180;2023-08-06T10:29:44;0.50;;;0.50;;
422;SDS011;198;48.752;9.180;2023-08-06T10:32:09;0.50;;;0.50;;
422;SDS011;198;48.752;9.180;2023-08-06T10:37:52;0.57;;;0.50;;
422;SDS011;198;48.752;9.180;2023-08-06T10:40:20;0.40;;;0.40;;
422;SDS011;198;48.752;9.180;2023-08-06T10:42:46;0.60;;;0.50;;
422;SDS011;198;48.752;9.180;2023-08-06T10:45:12;1.03;;;0.50;;
422;SDS011;198;48.752;9.180;2023-08-06T10:47:45;1.17;;;0.50;;
422;SDS011;198;48.752;9.180;2023-08-06T10:50:14;2.50;;;0.40;;
422;SDS011;198;48.752;9.180;2023-08-06T10:52:43;0.63;;;0.50;;
422;SDS011;198;48.752;9.180;2023-08-06T10:55:09;0.60;;;0.50;;
422;SDS011;198;48.752;9.180;2023-08-06T10:57:34;0.40;;;0.40;;
422;SDS011;198;48.752;9.180;2023-08-06T11:00:01;1.53;;;0.50;;
422;SDS011;198;48.752;9.180;2023-08-06T11:02:26;0.47;;;0.40;;
422;SDS011;198;48.752;9.180;2023-08-06T11:04:53;0.50;;;0.50;;
422;SDS011;198;48.752;9.180;2023-08-06T11:07:18;0.63;;;0.50;;
422;SDS011;198;48.752;9.180;2023-08-06T11:09:49;1.07;;;0.53;;
422;SDS011;198;48.752;9.180;2023-08-06T11:12:18;0.90;;;0.50;;
422;SDS011;198;48.752;9.180;2023-08-06T11:14:49;0.40;;;0.40;;
422;SDS011;198;48.752;9.180;2023-08-06T11:17:15;0.60;;;0.50;;
422;SDS011;198;48.752;9.180;2023-08-06T11:19:41;0.50;;;0.50;;
422;SDS011;198;48.752;9.180;2023-08-06T11:22:06;0.43;;;0.40;;
422;SDS011;198;48.752;9.180;2023-08-06T11:24:32;1.90;;;0.83;;
422;SDS011;198;48.752;9.180;2023-08-06T11:26:57;0.80;;;0.50;;
422;SDS011;198;48.752;9.180;2023-08-06T11:29:23;0.60;;;0.50;;
422;SDS011;198;48.752;9.180;2023-08-06T11:31:49;1.17;;;0.53;;
422;SDS011;198;48.752;9.180;2023-08-06T11:34:14;0.60;;;0.50;;
422;SDS011;198;48.752;9.180;2023-08-06T11:36:41;0.60;;;0.50;;
422;SDS011;198;48.752;9.180;2023-08-06T11:39:07;0.47;;;0.43;;
422;SDS011;198;48.752;9.180;2023-08-06T11:41:35;0.60;;;0.60;;
422;SDS011;198;48.752;9.180;2023-08-06T11:44:03;0.70;;;0.70;;
422;SDS011;198;48.752;9.180;2023-08-06T11:46:28;0.70;;;0.70;;
422;SDS011;198;48.752;9.180;2023-08-06T11:48:54;0.80;;;0.70;;
422;SDS011;198;48.752;9.180;2023-08-06T11:51:22;0.80;;;0.70;;
422;SDS011;198;48.752;9.180;2023-08-06T11:53:49;1.27;;;0.73;;
422;SDS011;198;48.752;9.180;2023-08-06T11:56:15;3.77;;;0.70;;
422;SDS011;198;48.752;9.180;2023-08-06T11:58:41;1.00;;;0.90;;
422;SDS011;198;48.752;9.180;2023-08-06T12:01:07;3.60;;;0.97;;
422;SDS011;198;48.752;9.180;2023-08-06T12:03:32;1.60;;;0.90;;
422;SDS011;198;48.752;9.180;2023-08-06T12:06:04;1.23;;;1.00;;
422;SDS011;198;48.752;9.180;2023-08-06T12:08:29;2.07;;;0.93;;
422;SDS011;198;48.752;9.180;2023-08-06T12:10:55;0.83;;;0.80;;
422;SDS011;198;48.752;9.180;2023-08-06T12:13:20;0.90;;;0.80;;
422;SDS011;198;48.752;9.180;2023-08-06T12:15:46;0.87;;;0.83;;
422;SDS011;198;48.752;9.180;2023-08-06T12:18:12;2.40;;;0.90;;
422;SDS011;198;48.752;9.180;2023-08-06T12:20:37;0.87;;;0.80;;
422;SDS011;198;48.752;9.180;2023-08-06T12:23:03;1.20;;;0.90;;
422;SDS011;198;48.752;9.180;2023-08-06T12:25:29;1.80;;;0.83;;
422;SDS011;198;48.752;9.180;2023-08-06T12:27:54;0.87;;;0.80;;
422;SDS011;198;48.752;9.180;2023-08-06T12:30:20;2.90;;;0.80;;
422;SDS011;198;48.752;9.180;2023-08-06T12:32:45;1.63;;;0.80;;
422;SDS011;198;48.752;9.180;2023-08-06T12:35:11;0.73;;;0.70;;
422;SDS011;198;48.752;9.180;2023-08-06T12:37:37;2.57;;;1.40;;
422;SDS011;198;48.752;9.180;2023-08-06T12:40:05;1.37;;;1.20;;
422;SDS011;198;48.752;9.180;2023-08-06T12:42:31;0.80;;;0.70;;
422;SDS011;198;48.752;9.180;2023-08-06T12:44:57;3.20;;;1.00;;
422;SDS011;198;48.752;9.180;2023-08-06T12:47:23;1.20;;;0.80;;
422;SDS011;198;48.752;9.180;2023-08-06T12:49:49;0.80;;;0.70;;
422;SDS011;198;48.752;9.180;2023-08-06T12:52:14;0.80;;;0.70;;
422;SDS011;198;48.752;9.180;2023-08-06T12:54:41;0.93;;;0.83;;
422;SDS011;198;48.752;9.180;2023-08-06T12:57:06;4.13;;;0.67;;
422;SDS011;198;48.752;9.180;2023-08-06T12:59:32;1.00;;;0.70;;
422;SDS011;198;48.752;9.180;2023-08-06T13:01:59;0.70;;;0.60;;
422;SDS011;198;48.752;9.180;2023-08-06T13:04:25;0.83;;;0.80;;
422;SDS011;198;48.752;9.180;2023-08-06T13:06:50;2.03;;;1.43;;
422;SDS011;198;48.752;9.180;2023-08-06T13:09:16;0.87;;;0.77;;
422;SDS011;198;48.752;9.180;2023-08-06T13:11:41;3.87;;;1.10;;
422;SDS011;198;48.752;9.180;2023-08-06T13:14:10;1.43;;;1.10;;
422;SDS011;198;48.752;9.180;2023-08-06T13:16:37;1.90;;;1.00;;
422;SDS011;198;48.752;9.180;2023-08-06T13:19:05;2.33;;;1.07;;
422;SDS011;198;48.752;9.180;2023-08-06T13:21:32;1.27;;;1.10;;
422;SDS011;198;48.752;9.180;2023-08-06T13:23:59;1.77;;;1.30;;
422;SDS011;198;48.752;9.180;2023-08-06T13:26:29;5.13;;;1.07;;
422;SDS011;198;48.752;9.180;2023-08-06T13:28:56;1.47;;;1.20;;
422;SDS011;198;48.752;9.180;2023-08-06T13:31:25;1.30;;;0.80;;
422;SDS011;198;48.752;9.180;2023-08-06T13:33:51;3.50;;;0.70;;
422;SDS011;198;48.752;9.180;2023-08-06T13:36:16;1.10;;;0.80;;
422;SDS011;198;48.752;9.180;2023-08-06T13:38:42;1.03;;;0.90;;
422;SDS011;198;48.752;9.180;2023-08-06T13:41:08;0.83;;;0.70;;
422;SDS011;198;48.752;9.180;2023-08-06T13:43:33;0.73;;;0.70;;
422;SDS011;198;48.752;9.180;2023-08-06T13:45:59;2.20;;;0.80;;
422;SDS011;198;48.752;9.180;2023-08-06T13:48:24;1.40;;;1.10;;
422;SDS011;198;48.752;9.180;2023-08-06T13:50:50;2.43;;;0.77;;
422;SDS011;198;48.752;9.180;2023-08-06T13:53:16;0.60;;;0.50;;
422;SDS011;198;48.752;9.180;2023-08-06T13:55:41;0.83;;;0.80;;
422;SDS011;198;48.752;9.180;2023-08-06T13:58:07;1.27;;;0.70;;
422;SDS011;198;48.752;9.180;2023-08-06T14:00:33;1.47;;;0.80;;
422;SDS011;198;48.752;9.180;2023-08-06T14:03:00;0.90;;;0.83;;
422;SDS011;198;48.752;9.180;2023-08-06T14:05:25;0.80;;;0.70;;
422;SDS011;198;48.752;9.180;2023-08-06T14:07:51;3.23;;;0.87;;
422;SDS011;198;48.752;9.180;2023-08-06T14:10:16;1.00;;;0.90;;
422;SDS011;198;48.752;9.180;2023-08-06T14:12:42;1.50;;;0.70;;
422;SDS011;198;48.752;9.180;2023-08-06T14:15:08;0.90;;;0.63;;
422;SDS011;198;48.752;9.180;2023-08-06T14:17:34;1.30;;;0.80;;
422;SDS011;198;48.752;9.180;2023-08-06T14:19:59;2.83;;;1.10;;
422;SDS011;198;48.752;9.180;2023-08-06T14:22:25;0.70;;;0.50;;
422;SDS011;198;48.752;9.180;2023-08-06T14:24:51;2.50;;;0.67;;
422;SDS011;198;48.752;9.180;2023-08-06T14:27:16;3.57;;;0.80;;
422;SDS011;198;48.752;9.180;2023-08-06T14:29:42;0.70;;;0.60;;
422;SDS011;198;48.752;9.180;2023-08-06T14:32:07;2.10;;;0.70;;
422;SDS011;198;48.752;9.180;2023-08-06T14:34:33;2.93;;;0.87;;
422;SDS011;198;48.752;9.180;2023-08-06T14:36:58;0.80;;;0.70;;
422;SDS011;198;48.752;9.180;2023-08-06T14:39:24;2.50;;;0.90;;
422;SDS011;198;48.752;9.180;2023-08-06T14:41:49;3.70;;;1.23;;
422;SDS011;198;48.752;9.180;2023-08-06T14:44:15;0.80;;;0.73;;
422;SDS011;198;48.752;9.180;2023-08-06T14:46:40;2.33;;;0.97;;
422;SDS011;198;48.752;9.180;2023-08-06T14:49:06;2.67;;;0.90;;
422;SDS011;198;48.752;9.180;2023-08-06T14:51:31;1.53;;;0.90;;
422;SDS011;198;48.752;9.180;2023-08-06T14:53:57;1.33;;;0.60;;
422;SDS011;198;48.752;9.180;2023-08-06T14:56:22;7.00;;;0.80;;
422;SDS011;198;48.752;9.180;2023-08-06T14:58:48;0.80;;;0.70;;
422;SDS011;198;48.752;9.180;2023-08-06T15:01:13;0.97;;;0.90;;
422;SDS011;198;48.752;9.180;2023-08-06T15:03:39;0.83;;;0.70;;
422;SDS011;198;48.752;9.180;2023-08-06T15:06:04;1.07;;;0.87;;
422;SDS011;198;48.752;9.180;2023-08-06T15:08:30;0.80;;;0.70;;
422;SDS011;198;48.752;9.180;2023-08-06T15:10:55;0.90;;;0.70;;
422;SDS011;198;48.752;9.180;2023-08-06T15:13:21;0.80;;;0.70;;
422;SDS011;198;48.752;9.180;2023-08-06T15:15:47;0.70;;;0.60;;
422;SDS011;198;48.752;9.180;2023-08-06T15:18:13;1.03;;;0.90;;
422;SDS011;198;48.752;9.180;2023-08-06T15:20:38;2.00;;;0.80;;
422;SDS011;198;48.752;9.180;2023-08-06T15:23:04;2.03;;;1.30;;
422;SDS011;198;48.752;9.180;2023-08-06T15:25:29;0.50;;;0.50;;
422;SDS011;198;48.752;9.180;2023-08-06T15:27:55;0.80;;;0.50;;
422;SDS011;198;48.752;9.180;2023-08-06T15:30:21;3.07;;;0.80;;
422;SDS011;198;48.752;9.180;2023-08-06T15:32:46;3.50;;;0.70;;
422;SDS011;198;48.752;9.180;2023-08-06T15:35:12;0.90;;;0.60;;
422;SDS011;198;48.752;9.180;2023-08-06T15:37:38;1.23;;;0.70;;
422;SDS011;198;48.752;9.180;2023-08-06T15:40:05;1.33;;;0.60;;
422;SDS011;198;48.752;9.180;2023-08-06T15:42:31;0.60;;;0.60;;
422;SDS011;198;48.752;9.180;2023-08-06T15:44:57;0.80;;;0.70;;